Time;durP1;ratioP1;P1;durP2;ratioP2;P2;SDS_P1;SDS_P2;PMS_P1;PMS_P2;Temp;Humidity;BMP_temperature;BMP_pressure;BME280_temperature;BME280_humidity;BME280_pressure;Samples;Min_cycle;Max_cycle;Signal;HPM_P1;HPM_P2
2023/10/03 00:03:08;;;;;;;25.60;12.20;;;18.50;99.90;;;;;;7298001;32;20135;-56
2023/10/03 00:07:10;;;;;;;28.05;12.63;;;18.50;99.90;;;;;;7299874;32;20103;-56
2023/10/03 00:11:19;;;;;;;27.92;12.23;;;18.50;99.90;;;;;;7304495;32;20176;-56
2023/10/03 00:15:28;;;;;;;25.65;12.18;;;18.50;99.90;;;;;;7296056;32;20630;-55
2023/10/03 00:19:30;;;;;;;28.58;13.62;;;18.40;99.90;;;;;;7304042;32;20494;-56
2023/10/03 00:23:32;;;;;;;25.80;12.05;;;18.40;99.90;;;;;;7298276;32;20099;-56
2023/10/03 00:27:35;;;;;;;26.30;12.52;;;18.40;99.90;;;;;;7300538;32;20100;-57
2023/10/03 00:31:38;;;;;;;27.30;12.45;;;18.40;99.90;;;;;;7300980;32;20308;-57
2023/10/03 00:35:40;;;;;;;26.37;12.73;;;18.40;99.90;;;;;;7300334;32;20411;-55
2023/10/03 00:39:43;;;;;;;25.67;12.27;;;18.50;99.90;;;;;;7296570;32;20120;-55
2023/10/03 00:44:11;;;;;;;26.62;12.32;;;18.50;99.90;;;;;;7302105;32;20112;-56
2023/10/03 00:48:13;;;;;;;30.17;12.35;;;18.50;99.90;;;;;;7301841;32;20124;-55
2023/10/03 00:52:15;;;;;;;28.12;12.15;;;18.50;99.90;;;;;;7300227;32;20512;-56
2023/10/03 00:56:19;;;;;;;26.40;12.57;;;18.50;99.90;;;;;;7298190;32;20120;-56
2023/10/03 01:00:21;;;;;;;27.95;12.52;;;18.50;99.90;;;;;;7299022;32;20127;-56
2023/10/03 01:04:30;;;;;;;27.48;12.20;;;18.60;99.90;;;;;;7300043;32;20231;-56
2023/10/03 01:08:36;;;;;;;30.98;13.52;;;18.50;99.90;;;;;;7293838;32;20103;-55
2023/10/03 01:12:39;;;;;;;28.70;12.93;;;18.50;99.90;;;;;;7301191;32;20279;-57
2023/10/03 01:16:41;;;;;;;25.05;11.50;;;18.50;99.90;;;;;;7297714;32;20456;-56
2023/10/03 01:20:48;;;;;;;30.48;12.27;;;18.70;99.90;;;;;;7301333;32;20129;-56
2023/10/03 01:24:50;;;;;;;26.35;12.05;;;18.50;99.90;;;;;;7298799;32;20107;-56
2023/10/03 01:28:52;;;;;;;24.50;11.75;;;18.50;99.90;;;;;;7300565;32;20111;-56
2023/10/03 01:32:56;;;;;;;25.35;12.77;;;18.50;99.90;;;;;;7297727;32;20111;-57
2023/10/03 01:36:58;;;;;;;24.27;12.13;;;18.50;99.90;;;;;;7293955;32;20301;-56
2023/10/03 01:41:00;;;;;;;30.05;12.82;;;18.60;99.90;;;;;;7296461;32;20096;-56
2023/10/03 01:45:03;;;;;;;31.15;12.80;;;18.50;99.90;;;;;;7297870;32;20523;-55
2023/10/03 01:49:05;;;;;;;27.62;12.90;;;18.60;99.90;;;;;;7294125;32;20121;-55
2023/10/03 01:53:07;;;;;;;25.20;12.20;;;18.50;99.90;;;;;;7297846;32;20124;-57
2023/10/03 01:57:09;;;;;;;24.25;12.43;;;18.60;99.90;;;;;;7300187;32;20100;-56
2023/10/03 02:01:12;;;;;;;26.95;12.60;;;18.60;99.90;;;;;;7296047;32;20534;-57
2023/10/03 02:05:15;;;;;;;24.02;11.73;;;18.60;99.90;;;;;;7298974;32;20111;-57
2023/10/03 02:09:17;;;;;;;27.05;12.93;;;18.50;99.90;;;;;;7296460;32;21071;-56
2023/10/03 02:13:21;;;;;;;24.05;11.60;;;18.60;99.90;;;;;;7299948;32;20841;-56
2023/10/03 02:17:25;;;;;;;31.37;13.85;;;18.60;99.90;;;;;;7296299;32;20487;-56
2023/10/03 02:21:27;;;;;;;23.83;11.15;;;18.70;99.90;;;;;;7299156;32;20104;-56
2023/10/03 02:25:29;;;;;;;29.30;12.55;;;18.80;99.90;;;;;;7291764;32;20226;-56
2023/10/03 02:29:31;;;;;;;25.37;11.90;;;18.90;99.90;;;;;;7301609;32;20101;-56
2023/10/03 02:33:40;;;;;;;27.80;13.05;;;18.80;99.90;;;;;;7298389;32;20140;-55
2023/10/03 02:37:42;;;;;;;25.08;11.63;;;18.90;99.90;;;;;;7295970;32;20174;-56
2023/10/03 02:41:44;;;;;;;22.58;11.48;;;18.80;99.90;;;;;;7298950;32;20118;-56
2023/10/03 02:45:46;;;;;;;26.10;12.07;;;18.80;99.90;;;;;;7298626;32;20153;-55
2023/10/03 02:49:49;;;;;;;26.12;11.98;;;18.80;99.90;;;;;;7296313;32;20100;-56
2023/10/03 02:53:51;;;;;;;26.65;12.93;;;18.70;99.90;;;;;;7297375;32;20598;-56
2023/10/03 02:57:53;;;;;;;25.98;12.35;;;18.70;99.90;;;;;;7300331;32;20112;-55
2023/10/03 03:01:56;;;;;;;25.37;12.02;;;18.70;99.90;;;;;;7299390;32;20125;-56
2023/10/03 03:06:09;;;;;;;25.17;11.48;;;18.80;99.90;;;;;;7293268;32;20179;-57
2023/10/03 03:10:14;;;;;;;24.73;11.40;;;18.70;99.90;;;;;;7298760;32;20579;-56
2023/10/03 03:14:16;;;;;;;24.70;11.98;;;18.70;99.90;;;;;;7302997;32;20165;-56
2023/10/03 03:18:23;;;;;;;22.52;11.45;;;18.70;99.90;;;;;;7305777;32;20461;-56
2023/10/03 03:22:27;;;;;;;25.08;12.52;;;18.70;99.90;;;;;;7304316;32;20226;-56
2023/10/03 03:26:39;;;;;;;24.12;12.15;;;18.70;99.90;;;;;;7302916;32;20315;-56
2023/10/03 03:30:45;;;;;;;21.20;11.07;;;18.90;99.90;;;;;;7298821;32;20542;-56
2023/10/03 03:34:47;;;;;;;23.25;11.12;;;18.80;99.90;;;;;;7298626;32;20104;-56
2023/10/03 03:38:51;;;;;;;23.08;11.10;;;18.80;99.90;;;;;;7299267;32;20232;-56
2023/10/03 03:42:54;;;;;;;24.83;10.98;;;18.80;99.90;;;;;;7304527;32;20120;-55
2023/10/03 03:46:55;;;;;;;24.08;11.65;;;19.00;99.90;;;;;;7297158;32;20273;-55
2023/10/03 03:50:57;;;;;;;24.20;11.10;;;19.00;99.90;;;;;;7296453;32;20680;-56
2023/10/03 03:55:00;;;;;;;24.60;10.82;;;18.90;99.90;;;;;;7299849;32;20206;-57
2023/10/03 03:59:03;;;;;;;23.75;11.40;;;18.90;99.90;;;;;;7300430;32;20172;-56
2023/10/03 04:03:09;;;;;;;21.20;10.88;;;18.90;99.90;;;;;;7299647;32;20552;-55
2023/10/03 04:07:11;;;;;;;24.75;10.80;;;18.80;99.90;;;;;;7299440;32;20096;-55
2023/10/03 04:11:16;;;;;;;22.58;11.50;;;18.70;99.90;;;;;;7297044;32;20676;-55
2023/10/03 04:15:20;;;;;;;23.02;10.68;;;18.80;99.90;;;;;;7302872;32;20139;-56
2023/10/03 04:19:23;;;;;;;20.55;10.38;;;18.80;99.90;;;;;;7303778;32;20177;-57
2023/10/03 04:23:24;;;;;;;20.88;10.85;;;18.80;99.90;;;;;;7298913;32;20525;-55
2023/10/03 04:27:26;;;;;;;22.33;10.45;;;18.60;99.90;;;;;;7303005;32;20187;-56
2023/10/03 04:31:28;;;;;;;22.98;11.05;;;18.70;99.90;;;;;;7300024;32;20115;-56
2023/10/03 04:35:30;;;;;;;21.60;10.38;;;18.60;99.90;;;;;;7302538;32;20187;-56
2023/10/03 04:39:32;;;;;;;19.55;10.15;;;18.80;99.90;;;;;;7301505;32;20163;-55
2023/10/03 04:43:33;;;;;;;26.77;10.32;;;19.00;99.90;;;;;;7301811;32;20202;-55
2023/10/03 04:47:36;;;;;;;19.15;9.73;;;18.90;99.90;;;;;;7296656;32;20214;-55
2023/10/03 04:51:38;;;;;;;19.55;9.60;;;18.80;99.90;;;;;;7301739;32;20188;-56
2023/10/03 04:55:44;;;;;;;18.48;9.13;;;18.80;99.90;;;;;;7297221;32;20683;-57
2023/10/03 04:59:46;;;;;;;20.45;9.70;;;18.90;99.90;;;;;;7302794;32;20581;-56
2023/10/03 05:03:48;;;;;;;19.85;9.65;;;19.00;99.90;;;;;;7298084;32;20278;-56
2023/10/03 05:07:52;;;;;;;16.10;9.07;;;18.90;99.90;;;;;;7299438;32;20957;-57
2023/10/03 05:11:54;;;;;;;21.00;9.77;;;18.90;99.90;;;;;;7295007;32;20112;-56
2023/10/03 05:15:57;;;;;;;20.67;9.15;;;18.80;99.90;;;;;;7300215;32;20467;-56
2023/10/03 05:19:59;;;;;;;18.77;9.25;;;18.70;99.90;;;;;;7300502;32;20152;-56
2023/10/03 05:24:01;;;;;;;17.67;8.55;;;18.70;99.90;;;;;;7294312;32;21039;-56
2023/10/03 05:28:05;;;;;;;19.90;9.68;;;18.80;99.90;;;;;;7295413;32;20147;-56
2023/10/03 05:32:07;;;;;;;19.58;9.18;;;18.90;99.90;;;;;;7298032;32;20113;-55
2023/10/03 05:36:18;;;;;;;19.67;9.13;;;19.00;99.90;;;;;;7302119;32;20107;-56
2023/10/03 05:40:20;;;;;;;18.80;8.68;;;19.10;99.90;;;;;;7296657;32;20282;-55
2023/10/03 05:44:25;;;;;;;19.17;8.45;;;19.20;99.90;;;;;;7302531;32;20332;-56
2023/10/03 05:48:27;;;;;;;16.62;7.85;;;19.40;99.90;;;;;;7297350;32;20400;-55
2023/10/03 05:52:32;;;;;;;20.33;7.90;;;19.40;99.90;;;;;;7294361;32;20096;-55
2023/10/03 05:56:33;;;;;;;16.52;7.72;;;19.60;99.90;;;;;;7295804;32;20108;-55
2023/10/03 06:00:36;;;;;;;19.60;7.25;;;19.70;99.90;;;;;;7295368;32;20100;-55
2023/10/03 06:04:38;;;;;;;16.23;7.75;;;19.70;99.90;;;;;;7299260;32;20104;-56
2023/10/03 06:08:40;;;;;;;15.77;7.55;;;19.80;99.90;;;;;;7293695;32;20183;-56
2023/10/03 06:12:42;;;;;;;16.20;7.25;;;19.80;99.90;;;;;;7293186;32;20522;-56
2023/10/03 06:16:44;;;;;;;15.90;8.18;;;19.80;99.90;;;;;;7297713;32;20486;-55
2023/10/03 06:20:48;;;;;;;16.08;7.43;;;19.80;99.90;;;;;;7300163;32;20103;-54
2023/10/03 06:24:53;;;;;;;16.30;7.65;;;19.80;99.90;;;;;;7294848;32;20174;-56
2023/10/03 06:28:54;;;;;;;21.83;7.75;;;19.80;99.90;;;;;;7299315;32;20156;-56
2023/10/03 06:32:57;;;;;;;17.20;7.95;;;19.70;99.90;;;;;;7288398;32;20142;-56
2023/10/03 06:37:00;;;;;;;15.93;6.22;;;19.80;99.90;;;;;;7297564;32;20209;-56
2023/10/03 06:41:07;;;;;;;14.15;6.97;;;19.80;99.90;;;;;;7300079;32;20151;-56
2023/10/03 06:45:09;;;;;;;15.93;6.78;;;19.70;99.90;;;;;;7301249;32;20132;-57
2023/10/03 06:49:11;;;;;;;14.93;6.75;;;19.80;99.90;;;;;;7297170;32;20119;-56
2023/10/03 06:53:13;;;;;;;11.65;6.20;;;19.70;99.90;;;;;;7301495;32;20764;-56
2023/10/03 06:57:15;;;;;;;14.30;6.72;;;19.70;99.90;;;;;;7297502;32;20590;-57
2023/10/03 07:01:17;;;;;;;12.57;6.03;;;19.60;99.90;;;;;;7294857;32;20092;-56
2023/10/03 07:05:19;;;;;;;12.57;5.55;;;19.50;99.90;;;;;;7299872;32;20122;-58
2023/10/03 07:09:21;;;;;;;15.77;5.32;;;19.60;99.90;;;;;;7299287;32;20268;-56
2023/10/03 07:13:25;;;;;;;11.88;5.53;;;19.50;99.90;;;;;;7299970;32;20157;-56
2023/10/03 07:17:27;;;;;;;9.85;4.75;;;19.50;99.90;;;;;;7298435;32;20114;-57
2023/10/03 07:21:29;;;;;;;10.18;5.30;;;19.40;99.90;;;;;;7299589;32;20177;-56
2023/10/03 07:25:32;;;;;;;11.10;4.90;;;19.40;99.90;;;;;;7305116;32;20226;-57
2023/10/03 07:29:36;;;;;;;12.93;4.95;;;19.40;99.90;;;;;;7298484;32;20270;-56
2023/10/03 07:33:44;;;;;;;11.02;5.30;;;19.40;99.90;;;;;;7300674;32;20891;-57
2023/10/03 07:37:46;;;;;;;11.93;5.55;;;19.40;99.90;;;;;;7293085;32;20510;-56
2023/10/03 07:41:51;;;;;;;8.80;4.90;;;19.40;99.90;;;;;;7304797;32;20097;-57
2023/10/03 07:45:54;;;;;;;11.43;5.12;;;19.50;99.90;;;;;;7299079;32;20119;-56
2023/10/03 07:49:58;;;;;;;12.75;5.05;;;19.50;99.90;;;;;;7301334;32;20175;-57
2023/10/03 07:54:00;;;;;;;9.43;4.82;;;19.50;99.90;;;;;;7296443;32;20101;-56
2023/10/03 07:58:02;;;;;;;8.40;4.53;;;19.50;99.90;;;;;;7303128;32;20297;-56
2023/10/03 08:02:10;;;;;;;9.65;4.25;;;19.50;99.90;;;;;;7301089;32;20532;-57
2023/10/03 08:06:14;;;;;;;8.85;4.20;;;19.50;99.90;;;;;;7300122;32;20194;-58
2023/10/03 08:10:17;;;;;;;9.98;4.28;;;19.50;99.90;;;;;;7298046;32;20109;-56
2023/10/03 08:14:19;;;;;;;9.95;4.57;;;19.40;99.90;;;;;;7300492;32;20108;-56
2023/10/03 08:18:20;;;;;;;11.10;4.03;;;19.40;99.90;;;;;;7298123;32;20175;-55
2023/10/03 08:22:22;;;;;;;6.37;4.28;;;19.40;99.90;;;;;;7295780;32;20335;-56
2023/10/03 08:26:25;;;;;;;8.27;4.28;;;19.40;99.90;;;;;;7298994;32;20126;-56
2023/10/03 08:30:30;;;;;;;5.68;3.78;;;19.50;99.90;;;;;;7301373;32;20317;-57
2023/10/03 08:34:32;;;;;;;6.87;3.58;;;19.50;99.90;;;;;;7298154;32;20682;-55
2023/10/03 08:38:43;;;;;;;8.60;4.15;;;19.60;99.90;;;;;;7293167;32;20104;-53
2023/10/03 08:42:52;;;;;;;7.62;3.83;;;19.50;99.90;;;;;;7301623;32;20158;-53
2023/10/03 08:46:55;;;;;;;10.13;4.40;;;19.50;99.90;;;;;;7298023;32;20132;-53
2023/10/03 08:50:58;;;;;;;8.82;4.25;;;19.40;99.90;;;;;;7299043;32;20108;-53
2023/10/03 08:55:06;;;;;;;9.73;4.15;;;19.30;99.90;;;;;;7298400;32;20155;-54
2023/10/03 08:59:09;;;;;;;9.35;4.43;;;19.20;99.90;;;;;;7292733;32;20108;-57
2023/10/03 09:03:13;;;;;;;9.07;3.92;;;19.20;99.90;;;;;;7299379;32;20126;-55
2023/10/03 09:07:15;;;;;;;8.50;4.00;;;19.20;99.90;;;;;;7301759;32;20104;-57
2023/10/03 09:11:18;;;;;;;6.53;3.90;;;19.20;99.90;;;;;;7296756;32;20227;-56
2023/10/03 09:15:23;;;;;;;8.40;4.10;;;19.20;99.90;;;;;;7293309;32;20114;-56
2023/10/03 09:19:41;;;;;;;7.32;4.12;;;19.30;99.90;;;;;;7297407;32;20104;-56
2023/10/03 09:24:17;;;;;;;9.82;4.28;;;19.30;99.90;;;;;;7300526;32;20238;-57
2023/10/03 09:28:27;;;;;;;7.80;4.53;;;19.30;99.90;;;;;;7297985;32;20187;-57
2023/10/03 09:32:38;;;;;;;9.18;4.00;;;19.40;99.90;;;;;;7294472;32;20111;-58
2023/10/03 09:36:40;;;;;;;7.28;4.18;;;19.50;99.90;;;;;;7291542;32;20112;-57
2023/10/03 09:40:51;;;;;;;8.05;4.18;;;19.60;99.90;;;;;;7298872;32;20116;-57
2023/10/03 09:44:57;;;;;;;6.47;3.50;;;19.60;99.90;;;;;;7294688;32;20819;-57
2023/10/03 09:49:08;;;;;;;6.72;3.80;;;19.50;99.90;;;;;;7297770;32;20089;-59
2023/10/03 09:53:15;;;;;;;11.23;3.90;;;19.50;99.90;;;;;;7298076;32;20548;-58
2023/10/03 09:57:17;;;;;;;8.63;4.50;;;19.60;99.90;;;;;;7298312;32;20577;-55
2023/10/03 10:01:19;;;;;;;9.77;3.85;;;19.60;99.90;;;;;;7298902;32;20159;-57
2023/10/03 10:05:25;;;;;;;10.50;3.60;;;19.60;99.90;;;;;;7291302;32;20245;-56
2023/10/03 10:09:34;;;;;;;7.03;3.20;;;19.60;99.90;;;;;;7299724;32;20108;-54
2023/10/03 10:13:37;;;;;;;7.55;3.67;;;19.50;99.90;;;;;;7296886;32;20175;-55
2023/10/03 10:18:10;;;;;;;6.97;3.75;;;19.50;99.90;;;;;;7299159;32;20105;-55
2023/10/03 10:22:12;;;;;;;6.00;3.25;;;19.40;99.90;;;;;;7288238;32;20616;-55
2023/10/03 10:26:28;;;;;;;8.63;3.90;;;19.30;99.90;;;;;;7295959;32;20132;-56
2023/10/03 10:30:31;;;;;;;12.10;5.07;;;19.10;99.90;;;;;;7294800;32;20288;-54
2023/10/03 10:34:35;;;;;;;8.57;5.32;;;18.70;99.90;;;;;;7297045;32;20244;-55
2023/10/03 10:38:37;;;;;;;10.07;5.45;;;18.30;99.90;;;;;;7291668;32;20822;-56
2023/10/03 10:42:59;;;;;;;12.75;5.90;;;18.00;99.90;;;;;;7293425;32;20096;-56
2023/10/03 10:47:05;;;;;;;12.75;6.50;;;17.70;99.90;;;;;;7298060;32;20123;-55
2023/10/03 10:51:08;;;;;;;12.00;7.65;;;17.50;99.90;;;;;;7293692;32;20748;-55
2023/10/03 10:55:10;;;;;;;11.65;7.62;;;17.30;99.90;;;;;;7296777;32;20134;-55
2023/10/03 10:59:12;;;;;;;9.40;7.00;;;17.20;99.90;;;;;;7296973;32;20194;-56
2023/10/03 11:03:21;;;;;;;12.10;6.62;;;17.20;99.90;;;;;;7293570;32;20517;-55
2023/10/03 11:07:26;;;;;;;8.80;6.32;;;17.10;99.90;;;;;;7292471;32;20332;-54
2023/10/03 11:11:36;;;;;;;11.40;6.55;;;17.10;99.90;;;;;;7294618;32;20107;-57
2023/10/03 11:15:45;;;;;;;8.18;5.07;;;17.10;99.90;;;;;;7296661;32;20198;-55
2023/10/03 11:19:48;;;;;;;9.77;4.78;;;17.10;99.90;;;;;;7294913;32;20127;-56
2023/10/03 11:24:15;;;;;;;6.30;2.45;;;17.20;99.90;;;;;;7299731;32;20198;-57
2023/10/03 11:28:18;;;;;;;8.60;2.75;;;17.00;99.90;;;;;;7295363;32;20153;-56
2023/10/03 11:32:32;;;;;;;3.72;2.10;;;17.00;99.90;;;;;;7299101;32;20100;-57
2023/10/03 11:36:43;;;;;;;6.25;2.33;;;17.10;99.90;;;;;;7302663;32;20151;-57
2023/10/03 11:40:47;;;;;;;3.90;1.52;;;17.10;99.90;;;;;;7299786;32;20123;-57
2023/10/03 11:45:00;;;;;;;6.00;1.23;;;17.00;99.90;;;;;;7301214;32;20107;-57
2023/10/03 11:49:03;;;;;;;2.80;1.17;;;16.80;99.90;;;;;;7296813;32;20093;-57
2023/10/03 11:53:08;;;;;;;2.17;0.95;;;16.80;99.90;;;;;;7301071;32;20793;-57
2023/10/03 11:57:10;;;;;;;3.75;0.80;;;16.80;99.90;;;;;;7298712;32;20163;-56
2023/10/03 12:01:12;;;;;;;3.35;1.12;;;16.80;99.90;;;;;;7300473;32;20092;-56
2023/10/03 12:05:14;;;;;;;4.43;0.90;;;16.80;99.90;;;;;;7298960;32;20180;-57
2023/10/03 12:09:17;;;;;;;2.80;1.08;;;16.70;99.90;;;;;;7299321;32;20431;-57
2023/10/03 12:13:20;;;;;;;4.55;0.90;;;16.60;99.90;;;;;;7298970;32;20209;-57
2023/10/03 12:17:22;;;;;;;3.47;0.90;;;16.70;99.90;;;;;;7298528;32;20530;-57
2023/10/03 12:21:23;;;;;;;5.75;0.80;;;16.80;99.90;;;;;;7302672;32;20262;-57
2023/10/03 12:25:29;;;;;;;6.70;1.48;;;16.70;99.90;;;;;;7301358;32;20108;-56
2023/10/03 12:29:34;;;;;;;5.82;1.15;;;16.60;99.90;;;;;;7295455;32;20190;-57
2023/10/03 12:33:36;;;;;;;4.20;1.23;;;16.70;99.90;;;;;;7295150;32;20288;-57
2023/10/03 12:37:39;;;;;;;4.35;1.25;;;16.70;99.90;;;;;;7293361;32;20492;-54
2023/10/03 12:41:41;;;;;;;5.78;1.10;;;16.70;99.90;;;;;;7299870;32;20096;-56
2023/10/03 12:45:43;;;;;;;2.20;0.90;;;16.60;99.90;;;;;;7301434;32;20122;-55
2023/10/03 12:49:44;;;;;;;6.10;1.48;;;16.60;99.90;;;;;;7301652;32;20126;-56
2023/10/03 12:53:48;;;;;;;7.03;0.98;;;16.50;99.90;;;;;;7300881;32;20179;-56
2023/10/03 12:57:50;;;;;;;1.73;0.75;;;16.30;99.90;;;;;;7302675;32;20103;-56
2023/10/03 13:01:52;;;;;;;1.75;0.50;;;15.70;99.90;;;;;;7300262;32;20620;-55
2023/10/03 13:05:55;;;;;;;1.12;0.60;;;15.80;99.90;;;;;;7298869;32;20210;-56
2023/10/03 13:09:57;;;;;;;3.15;0.68;;;15.90;99.90;;;;;;7296018;32;20169;-55
2023/10/03 13:14:03;;;;;;;1.60;0.50;;;15.80;99.90;;;;;;7300223;32;20099;-56
2023/10/03 13:18:05;;;;;;;2.60;0.68;;;15.90;99.90;;;;;;7297793;32;20131;-55
2023/10/03 13:22:08;;;;;;;2.42;0.70;;;15.90;99.90;;;;;;7295784;32;20282;-56
2023/10/03 13:26:10;;;;;;;1.92;0.70;;;16.00;99.90;;;;;;7293578;32;20841;-55
2023/10/03 13:30:17;;;;;;;0.70;0.50;;;16.20;99.90;;;;;;7294441;32;20451;-56
2023/10/03 13:34:20;;;;;;;1.83;0.77;;;16.30;99.90;;;;;;7297268;32;20183;-57
2023/10/03 13:38:22;;;;;;;1.73;0.70;;;16.40;99.90;;;;;;7297519;32;20145;-56
2023/10/03 13:42:23;;;;;;;2.40;0.88;;;16.40;99.90;;;;;;7299870;32;20269;-56
2023/10/03 13:46:25;;;;;;;2.40;0.80;;;16.30;99.90;;;;;;7290819;32;20108;-56
2023/10/03 13:50:29;;;;;;;2.72;0.77;;;15.90;99.90;;;;;;7292301;32;20467;-56
2023/10/03 13:54:35;;;;;;;1.17;0.70;;;15.80;99.90;;;;;;7294460;32;20214;-56
2023/10/03 13:58:37;;;;;;;3.60;1.20;;;15.80;99.90;;;;;;7297910;32;20123;-54
2023/10/03 14:02:44;;;;;;;4.87;1.10;;;15.70;99.90;;;;;;7299894;32;20191;-56
2023/10/03 14:06:47;;;;;;;;;;;15.80;99.90;;;;;;7298168;32;20115;-54
2023/10/03 14:10:49;;;;;;;3.28;0.93;;;15.80;99.90;;;;;;7301135;32;20013;-55
2023/10/03 14:14:52;;;;;;;2.97;1.45;;;15.60;99.90;;;;;;7298371;32;20162;-55
2023/10/03 14:18:55;;;;;;;3.83;1.10;;;15.60;99.90;;;;;;7296870;32;20229;-55
2023/10/03 14:22:57;;;;;;;4.15;0.50;;;15.60;99.90;;;;;;7298142;32;20096;-55
2023/10/03 14:26:59;;;;;;;2.17;0.90;;;15.50;99.90;;;;;;7295678;32;20128;-56
2023/10/03 14:31:02;;;;;;;2.22;0.80;;;15.50;99.90;;;;;;7299698;32;20461;-57
2023/10/03 14:35:05;;;;;;;3.47;0.80;;;15.50;99.90;;;;;;7293087;32;20653;-55
2023/10/03 14:39:13;;;;;;;2.05;1.10;;;15.70;99.90;;;;;;7293432;32;20100;-56
2023/10/03 14:43:15;;;;;;;2.50;0.70;;;15.60;99.90;;;;;;7294933;32;20157;-55
2023/10/03 14:47:18;;;;;;;3.37;1.65;;;15.40;99.90;;;;;;7297241;32;20251;-55
2023/10/03 14:51:20;;;;;;;3.42;1.75;;;15.40;99.90;;;;;;7291895;32;20092;-55
2023/10/03 14:55:22;;;;;;;1.80;0.70;;;15.30;99.90;;;;;;7293643;32;20236;-56
2023/10/03 14:59:24;;;;;;;2.70;1.10;;;15.20;99.90;;;;;;7299613;32;20509;-57
2023/10/03 15:03:27;;;;;;;3.05;1.27;;;14.80;99.90;;;;;;7297154;32;20581;-56
2023/10/03 15:07:29;;;;;;;2.65;1.30;;;14.80;99.90;;;;;;7299655;32;20096;-56
2023/10/03 15:11:31;;;;;;;3.37;1.40;;;14.80;99.90;;;;;;7299311;32;20458;-55
2023/10/03 15:15:32;;;;;;;2.75;1.10;;;14.70;99.90;;;;;;7295350;32;20100;-56
2023/10/03 15:19:35;;;;;;;2.65;1.17;;;14.50;99.90;;;;;;7302001;32;20711;-56
2023/10/03 15:23:37;;;;;;;3.87;1.40;;;14.50;99.90;;;;;;7304150;32;20293;-55
2023/10/03 15:27:39;;;;;;;3.45;1.30;;;14.60;99.90;;;;;;7289763;32;20188;-56
2023/10/03 15:31:41;;;;;;;2.62;1.17;;;14.70;99.90;;;;;;7303433;32;20112;-56
2023/10/03 15:35:43;;;;;;;3.37;1.40;;;14.70;99.90;;;;;;7301472;32;20147;-56
2023/10/03 15:39:47;;;;;;;4.28;1.10;;;14.80;99.90;;;;;;7298495;32;20169;-56
2023/10/03 15:43:52;;;;;;;2.70;1.00;;;14.60;99.90;;;;;;7299330;32;20146;-56
2023/10/03 15:47:53;;;;;;;3.37;1.05;;;14.60;99.90;;;;;;7304397;32;20104;-56
2023/10/03 15:51:55;;;;;;;2.05;0.90;;;14.50;99.90;;;;;;7302596;32;20140;-56
2023/10/03 15:55:58;;;;;;;4.15;1.15;;;14.60;99.90;;;;;;7301664;32;20781;-56
2023/10/03 15:59:59;;;;;;;3.45;0.98;;;14.60;99.90;;;;;;7297450;32;20113;-57
2023/10/03 16:04:02;;;;;;;3.87;1.10;;;14.70;99.90;;;;;;7302080;32;20105;-56
2023/10/03 16:08:06;;;;;;;4.37;0.98;;;14.70;99.90;;;;;;7298211;32;20208;-57
2023/10/03 16:12:11;;;;;;;2.50;1.10;;;14.50;99.90;;;;;;7298582;32;20408;-56
2023/10/03 16:16:14;;;;;;;4.00;1.02;;;14.40;99.90;;;;;;7295523;32;20118;-56
2023/10/03 16:20:20;;;;;;;3.30;0.70;;;14.20;99.90;;;;;;7293307;32;20146;-55
2023/10/03 16:24:22;;;;;;;4.00;1.33;;;14.30;99.90;;;;;;7297764;32;20153;-57
2023/10/03 16:28:24;;;;;;;4.97;2.80;;;14.10;99.90;;;;;;7304287;32;20496;-57
2023/10/03 16:32:26;;;;;;;4.37;1.50;;;14.00;99.90;;;;;;7299584;32;20477;-56
2023/10/03 16:36:28;;;;;;;4.43;1.30;;;13.90;99.90;;;;;;7300296;32;20578;-56
2023/10/03 16:40:31;;;;;;;3.12;1.30;;;13.90;99.90;;;;;;7302124;32;20122;-56
2023/10/03 16:44:33;;;;;;;3.20;1.10;;;13.80;99.90;;;;;;7302379;32;20213;-56
2023/10/03 16:48:35;;;;;;;4.47;1.20;;;13.80;99.90;;;;;;7300657;32;20140;-57
2023/10/03 16:52:41;;;;;;;3.60;1.40;;;13.70;99.90;;;;;;7302191;32;20104;-56
2023/10/03 16:56:43;;;;;;;5.87;1.42;;;13.60;99.90;;;;;;7301278;32;20126;-56
2023/10/03 17:00:44;;;;;;;4.10;1.42;;;13.60;99.90;;;;;;7297065;32;20204;-57
2023/10/03 17:04:46;;;;;;;6.50;1.70;;;13.40;99.90;;;;;;7290645;32;20126;-56
2023/10/03 17:08:48;;;;;;;5.35;1.20;;;13.50;99.90;;;;;;7302047;32;20115;-56
2023/10/03 17:12:50;;;;;;;4.75;1.42;;;13.50;99.90;;;;;;7296994;32;20187;-56
2023/10/03 17:16:52;;;;;;;5.45;1.23;;;13.40;99.90;;;;;;7293231;32;20109;-56
2023/10/03 17:20:53;;;;;;;5.57;1.73;;;13.40;99.90;;;;;;7297712;32;20104;-55
2023/10/03 17:24:55;;;;;;;4.85;1.50;;;13.40;99.90;;;;;;7292422;32;20707;-56
2023/10/03 17:28:57;;;;;;;7.90;1.83;;;13.40;99.90;;;;;;7295301;32;20643;-55
2023/10/03 17:33:00;;;;;;;6.35;1.80;;;13.40;99.90;;;;;;7297010;32;20100;-56
2023/10/03 17:37:05;;;;;;;9.07;1.73;;;13.40;99.90;;;;;;7302116;32;20187;-55
2023/10/03 17:41:07;;;;;;;4.70;1.85;;;13.30;99.90;;;;;;7298335;32;20672;-55
2023/10/03 17:45:09;;;;;;;5.90;1.87;;;13.40;99.90;;;;;;7296643;32;20230;-55
2023/10/03 17:49:12;;;;;;;6.97;1.77;;;13.30;99.90;;;;;;7300323;32;20104;-55
2023/10/03 17:53:14;;;;;;;5.93;2.10;;;13.40;99.90;;;;;;7300582;32;20189;-56
2023/10/03 17:57:15;;;;;;;6.15;2.20;;;13.40;99.90;;;;;;7294140;32;20202;-55
2023/10/03 18:01:25;;;;;;;7.12;2.17;;;13.30;99.90;;;;;;7300299;32;20120;-56
2023/10/03 18:05:27;;;;;;;7.30;2.37;;;13.30;99.90;;;;;;7302048;32;20133;-55
2023/10/03 18:09:29;;;;;;;5.53;1.92;;;13.30;99.90;;;;;;7301463;32;20096;-56
2023/10/03 18:13:32;;;;;;;6.03;2.30;;;13.30;99.90;;;;;;7287464;32;20130;-56
2023/10/03 18:17:36;;;;;;;4.82;2.30;;;13.20;99.90;;;;;;7299702;32;20547;-57
2023/10/03 18:21:38;;;;;;;4.00;1.70;;;13.20;99.90;;;;;;7299285;32;20314;-56
2023/10/03 18:25:42;;;;;;;5.85;2.10;;;13.10;99.90;;;;;;7296211;32;20104;-55
2023/10/03 18:29:43;;;;;;;8.98;2.10;;;13.00;99.90;;;;;;7288296;32;20182;-56
2023/10/03 18:33:45;;;;;;;7.15;2.30;;;12.90;99.90;;;;;;7293848;32;20101;-55
2023/10/03 18:37:48;;;;;;;6.50;1.98;;;12.90;99.90;;;;;;7296168;32;20100;-56
2023/10/03 18:41:50;;;;;;;6.70;1.85;;;12.80;99.90;;;;;;7300833;32;20143;-56
2023/10/03 18:45:52;;;;;;;4.72;1.92;;;12.70;99.90;;;;;;7296932;32;20118;-55
2023/10/03 18:49:59;;;;;;;7.55;2.40;;;12.70;99.90;;;;;;7299373;32;20092;-55
2023/10/03 18:54:01;;;;;;;5.35;2.03;;;12.70;99.90;;;;;;7300688;32;20120;-56
2023/10/03 18:58:03;;;;;;;6.22;2.03;;;12.60;99.90;;;;;;7303264;32;20123;-55
2023/10/03 19:02:05;;;;;;;5.60;2.28;;;12.50;99.90;;;;;;7299393;32;20143;-57
2023/10/03 19:06:08;;;;;;;5.32;2.03;;;12.40;99.90;;;;;;7301609;32;20342;-56
2023/10/03 19:10:14;;;;;;;5.87;2.15;;;12.30;99.90;;;;;;7303728;32;20121;-55
2023/10/03 19:14:16;;;;;;;8.30;2.20;;;12.30;99.90;;;;;;7304146;32;20262;-56
2023/10/03 19:18:17;;;;;;;4.50;2.08;;;12.30;99.90;;;;;;7301608;32;20566;-55
2023/10/03 19:22:19;;;;;;;5.95;2.35;;;12.20;99.90;;;;;;7299091;32;20510;-57
2023/10/03 19:26:21;;;;;;;5.05;2.30;;;12.20;99.90;;;;;;7298853;32;20167;-56
2023/10/03 19:30:23;;;;;;;6.57;2.47;;;12.20;99.90;;;;;;7294772;32;20214;-56
2023/10/03 19:34:25;;;;;;;6.00;2.15;;;12.20;99.90;;;;;;7303849;32;20536;-56
2023/10/03 19:38:28;;;;;;;6.25;2.05;;;12.30;99.90;;;;;;7300572;32;20176;-55
2023/10/03 19:42:30;;;;;;;4.65;2.20;;;12.40;99.90;;;;;;7302699;32;20686;-56
2023/10/03 19:46:31;;;;;;;5.28;2.45;;;12.50;99.90;;;;;;7303985;32;20103;-55
2023/10/03 19:50:33;;;;;;;6.28;1.95;;;12.50;99.90;;;;;;7298731;32;20245;-56
2023/10/03 19:54:35;;;;;;;4.75;2.10;;;12.50;99.90;;;;;;7296092;32;20152;-55
2023/10/03 19:58:40;;;;;;;7.18;2.08;;;12.40;99.90;;;;;;7302559;32;20222;-57
2023/10/03 20:02:43;;;;;;;4.72;1.75;;;12.50;99.90;;;;;;7298225;32;20119;-56
2023/10/03 20:06:47;;;;;;;6.37;2.20;;;12.50;99.90;;;;;;7297848;32;20165;-56
2023/10/03 20:10:49;;;;;;;6.65;2.15;;;12.60;99.90;;;;;;7300711;32;20089;-56
2023/10/03 20:14:52;;;;;;;7.82;2.37;;;12.60;99.90;;;;;;7301362;32;20326;-57
2023/10/03 20:18:54;;;;;;;5.22;1.85;;;12.50;99.90;;;;;;7295180;32;20484;-55
2023/10/03 20:22:56;;;;;;;6.53;2.12;;;12.60;99.90;;;;;;7297483;32;20092;-56
2023/10/03 20:26:57;;;;;;;6.12;2.30;;;12.70;99.90;;;;;;7302380;32;20231;-55
2023/10/03 20:31:00;;;;;;;4.87;2.62;;;12.70;99.90;;;;;;7304118;32;20096;-56
2023/10/03 20:35:02;;;;;;;5.12;2.40;;;12.90;99.90;;;;;;7302204;32;20111;-55
2023/10/03 20:39:05;;;;;;;6.30;2.10;;;13.00;99.90;;;;;;7301635;32;20100;-55
2023/10/03 20:43:08;;;;;;;4.47;1.98;;;13.00;99.90;;;;;;7295005;32;20609;-55
2023/10/03 20:47:10;;;;;;;4.72;2.12;;;13.10;99.90;;;;;;7302764;32;20134;-56
2023/10/03 20:51:23;;;;;;;5.57;2.00;;;13.10;99.90;;;;;;7302862;32;20228;-55
2023/10/03 20:55:26;;;;;;;5.97;2.85;;;13.10;99.90;;;;;;7299771;32;20284;-55
2023/10/03 20:59:27;;;;;;;5.78;2.35;;;13.10;99.90;;;;;;7298480;32;20115;-55